Time;durP1;ratioP1;P1;durP2;ratioP2;P2;SDS_P1;SDS_P2;PMS_P1;PMS_P2;Temp;Humidity;BMP_temperature;BMP_pressure;BME280_temperature;BME280_humidity;BME280_pressure;Samples;Min_cycle;Max_cycle;Signal;HPM_P1;HPM_P2
2022/06/29 00:00:07;;;;;;;2.63;2.40;;;;;;;22.17;72.97;97156.81;6090293;23;20224;-91
2022/06/29 00:02:34;;;;;;;3.03;2.20;;;;;;;22.81;73.04;97257.19;6066419;23;20169;-92
2022/06/29 00:05:03;;;;;;;2.70;2.30;;;;;;;22.50;72.80;97198.47;6066191;23;20210;-91
2022/06/29 00:07:29;;;;;;;3.97;2.50;;;;;;;22.88;72.81;97261.59;6066645;23;20196;-91
2022/06/29 00:09:56;;;;;;;2.10;2.00;;;;;;;22.54;73.11;97201.16;6091329;23;20192;-92
2022/06/29 00:12:23;;;;;;;2.53;2.23;;;;;;;22.16;73.00;97121.81;6091079;23;20175;-92
2022/06/29 00:14:52;;;;;;;2.47;2.00;;;;;;;16.43;72.30;96146.53;6105971;23;20216;-91
2022/06/29 00:17:21;;;;;;;5.07;2.70;;;;;;;15.62;72.24;96001.47;6087847;23;20183;-92
2022/06/29 00:19:48;;;;;;;3.43;2.57;;;;;;;16.19;72.42;96114.53;6064011;23;20160;-91
2022/06/29 00:22:16;;;;;;;2.60;2.20;;;;;;;20.56;72.89;96852.44;6063403;23;20223;-90
2022/06/29 00:24:49;;;;;;;3.53;2.73;;;;;;;21.20;72.85;96993.53;6111643;23;20263;-91
2022/06/29 00:27:17;;;;;;;4.87;2.60;;;;;;;20.56;72.77;96885.63;6115187;23;20182;-91
2022/06/29 00:29:45;;;;;;;2.20;2.00;;;;;;;23.17;73.01;97299.81;6089211;23;20198;-91
2022/06/29 00:32:12;;;;;;;2.40;2.17;;;;;;;18.93;72.44;96628.34;6037848;23;20174;-91
2022/06/29 00:34:45;;;;;;;2.90;2.60;;;;;;;16.68;72.44;96178.47;6064395;23;20204;-91
2022/06/29 00:37:15;;;;;;;2.30;2.10;;;;;;;16.20;72.32;96090.94;6069885;23;20175;-91
2022/06/29 00:39:51;;;;;;;2.50;2.30;;;;;;;20.87;73.00;96890.56;6092011;23;20243;-90
2022/06/29 00:42:24;;;;;;;2.30;2.07;;;;;;;20.69;72.99;96864.63;6088531;23;20168;-90
2022/06/29 00:44:54;;;;;;;2.23;2.03;;;;;;;20.12;72.59;96779.06;6088823;23;20213;-91
2022/06/29 00:47:22;;;;;;;3.30;2.50;;;;;;;16.24;72.25;96115.53;6087741;23;20171;-91
2022/06/29 00:49:53;;;;;;;2.70;2.30;;;;;;;17.03;72.58;96220.88;6089324;23;20188;-91
2022/06/29 00:52:29;;;;;;;2.43;2.17;;;;;;;21.62;72.81;97025.13;6089373;23;20243;-91
2022/06/29 00:54:59;;;;;;;2.77;2.57;;;;;;;18.80;72.83;96544.84;6061712;23;20639;-91
2022/06/29 00:57:32;;;;;;;3.10;2.20;;;;;;;16.35;72.23;96083.72;6064848;23;20222;-91
2022/06/29 00:59:59;;;;;;;2.80;2.40;;;;;;;21.69;72.92;97019.34;6060420;23;20537;-91
2022/06/29 01:02:33;;;;;;;2.83;2.40;;;;;;;23.04;72.82;97241.41;6085440;23;20624;-91
2022/06/29 01:05:01;;;;;;;2.83;2.20;;;;;;;23.39;72.74;97370.34;6064441;23;20203;-91
2022/06/29 01:07:29;;;;;;;2.53;2.33;;;;;;;16.48;72.72;96120.41;6062924;23;20183;-91
2022/06/29 01:09:56;;;;;;;2.50;2.30;;;;;;;23.40;72.95;97284.88;6061688;23;20190;-91
2022/06/29 01:12:26;;;;;;;2.37;2.17;;;;;;;15.66;72.37;95955.19;6087404;23;20187;-91
2022/06/29 01:14:59;;;;;;;3.30;2.30;;;;;;;23.40;73.11;97354.13;6065494;23;20207;-91
2022/06/29 01:17:26;;;;;;;2.70;2.50;;;;;;;21.75;72.97;97081.69;6063476;23;20253;-91
2022/06/29 01:19:57;;;;;;;2.30;2.03;;;;;;;21.35;72.60;96947.00;6087382;23;20176;-91
2022/06/29 01:22:38;;;;;;;2.80;2.20;;;;;;;20.93;72.77;96854.09;6088455;23;20176;-91
2022/06/29 01:25:06;;;;;;;2.90;2.50;;;;;;;15.82;72.76;96083.94;6086646;23;20203;-91
2022/06/29 01:27:36;;;;;;;2.77;2.30;;;;;;;16.79;72.55;96149.19;6065720;23;20163;-91
2022/06/29 01:30:07;;;;;;;2.67;2.20;;;;;;;23.28;72.83;97282.09;6087788;23;20210;-91
2022/06/29 01:32:38;;;;;;;2.37;2.17;;;;;;;19.83;72.75;96671.31;6086649;23;20623;-91
2022/06/29 01:35:12;;;;;;;2.53;2.10;;;;;;;15.97;72.45;96041.28;6065951;23;20195;-91
2022/06/29 01:37:40;;;;;;;3.23;2.53;;;;;;;20.74;72.86;96821.31;6066650;23;20194;-91
2022/06/29 01:40:07;;;;;;;2.27;1.97;;;;;;;21.38;72.97;96931.75;6068556;23;20390;-91
2022/06/29 01:42:36;;;;;;;2.87;2.37;;;;;;;21.71;nan;97021.91;6090149;23;20189;-91
2022/06/29 01:45:13;;;;;;;2.37;2.17;;;;;;;20.62;72.84;96791.31;6091549;23;20203;-91
2022/06/29 01:47:48;;;;;;;2.47;2.27;;;;;;;20.58;72.97;96781.88;6066321;23;20155;-91
2022/06/29 01:50:17;;;;;;;2.40;2.20;;;;;;;18.81;72.87;96476.97;6089324;23;20278;-90
2022/06/29 01:52:44;;;;;;;2.40;2.20;;;;;;;18.45;72.92;96437.94;6087190;23;20206;-91
2022/06/29 01:55:13;;;;;;;3.43;2.10;;;;;;;21.55;72.79;96949.13;6088718;23;20199;-91
2022/06/29 01:57:40;;;;;;;3.03;2.63;;;;;;;20.74;72.94;96808.56;6084413;23;20148;-91
2022/06/29 02:00:10;;;;;;;2.27;2.07;;;;;;;18.87;72.62;96540.75;6063782;23;20175;-90
2022/06/29 02:02:40;;;;;;;2.10;1.90;;;;;;;23.18;72.99;97257.09;6086457;23;20234;-91
2022/06/29 02:05:33;;;;;;;2.30;2.10;;;;;;;23.39;73.05;97278.03;6087425;23;20256;-91
2022/06/29 02:08:00;;;;;;;2.47;2.20;;;;;;;19.18;72.65;96595.00;6087169;23;20168;-91
2022/06/29 02:10:30;;;;;;;2.20;2.00;;;;;;;17.41;72.32;96277.69;6064318;23;20204;-91
2022/06/29 02:12:59;;;;;;;2.10;1.90;;;;;;;20.62;72.86;96806.63;6088037;23;20180;-91
2022/06/29 02:15:30;;;;;;;2.70;2.27;;;;;;;22.35;72.73;97100.88;6087827;23;20722;-91
2022/06/29 02:17:56;;;;;;;4.20;2.30;;;;;;;20.11;72.79;96718.69;6112718;23;20179;-91
2022/06/29 02:20:23;;;;;;;3.00;1.90;;;;;;;20.10;72.79;96746.72;6087976;23;20175;-91
2022/06/29 02:22:50;;;;;;;2.23;2.00;;;;;;;20.61;72.67;96802.34;6066707;23;20211;-91
2022/06/29 02:25:19;;;;;;;2.30;2.10;;;;;;;20.52;72.83;96778.31;6111117;23;20203;-91
2022/06/29 02:27:46;;;;;;;2.20;2.00;;;;;;;15.63;72.45;95970.28;6089590;23;20191;-91
2022/06/29 02:30:15;;;;;;;2.27;2.07;;;;;;;19.98;73.01;96704.81;6066317;23;20202;-92
2022/06/29 02:35:42;;;;;;;2.90;2.27;;;;;;;20.96;72.80;96846.53;6094285;23;20175;-91
2022/06/29 02:38:09;;;;;;;2.00;1.80;;;;;;;19.25;72.66;96603.66;6115283;23;20210;-91
2022/06/29 02:40:35;;;;;;;2.30;2.10;;;;;;;19.55;72.94;96640.94;6089366;23;20231;-91
2022/06/29 02:43:02;;;;;;;2.30;2.10;;;;;;;17.05;72.59;96226.81;6088600;23;20244;-91
2022/06/29 02:45:29;;;;;;;3.10;1.93;;;;;;;16.64;72.67;96166.50;6064331;23;20267;-92
2022/06/29 02:47:56;;;;;;;2.30;2.10;;;;;;;16.79;72.55;96139.03;6112806;23;20191;-91
2022/06/29 02:50:26;;;;;;;4.17;2.37;;;;;;;20.58;72.93;96781.88;6088790;23;20203;-91
2022/06/29 02:52:53;;;;;;;2.27;1.83;;;;;;;14.75;72.53;95799.94;6063772;23;20183;-91
2022/06/29 02:55:40;;;;;;;2.17;1.97;;;;;;;21.04;72.97;96858.63;6066667;23;20167;-91
2022/06/29 02:58:11;;;;;;;2.50;2.20;;;;;;;23.38;73.00;97256.63;6085461;23;20173;-91
2022/06/29 03:00:41;;;;;;;2.30;2.10;;;;;;;20.95;72.60;96832.03;6088320;23;20167;-91
2022/06/29 03:03:08;;;;;;;2.00;1.80;;;;;;;16.05;72.57;95989.16;6087517;23;20176;-90
2022/06/29 03:05:46;;;;;;;2.00;1.90;;;;;;;18.81;72.74;96482.94;6087451;23;20175;-91
2022/06/29 03:08:16;;;;;;;2.40;2.20;;;;;;;16.18;72.59;96059.59;6089556;23;20215;-91
2022/06/29 03:10:49;;;;;;;2.00;1.87;;;;;;;20.71;72.78;96785.50;6086864;23;20207;-91
2022/06/29 03:13:16;;;;;;;4.73;2.10;;;;;;;22.96;73.07;97185.75;6086907;23;20227;-91
2022/06/29 03:15:43;;;;;;;2.17;1.97;;;;;;;20.97;72.56;96879.78;6087251;23;20204;-91
2022/06/29 03:18:10;;;;;;;1.97;1.77;;;;;;;23.39;72.80;97298.53;6066084;23;20190;-91
2022/06/29 03:20:39;;;;;;;2.53;2.33;;;;;;;22.32;nan;97119.56;6085478;23;20183;-93
2022/06/29 03:23:09;;;;;;;2.20;2.00;;;;;;;19.71;72.40;96756.84;6036002;23;20716;-94
2022/06/29 03:25:36;;;;;;;2.03;1.83;;;;;;;21.40;73.07;97010.19;6062451;23;20195;-94
2022/06/29 03:28:03;;;;;;;2.40;2.20;;;;;;;19.19;72.95;96593.31;6063862;23;20198;-94
2022/06/29 03:30:30;;;;;;;2.00;1.87;;;;;;;17.54;72.67;96316.19;6037322;23;20199;-92
2022/06/29 03:32:57;;;;;;;2.37;2.17;;;;;;;17.09;72.51;96245.53;6057432;23;20267;-93
2022/06/29 03:35:24;;;;;;;2.47;2.23;;;;;;;23.39;73.06;97260.91;6058704;23;20199;-94
2022/06/29 03:37:51;;;;;;;2.03;1.93;;;;;;;16.75;72.49;96141.47;6085602;23;20164;-94
2022/06/29 03:40:18;;;;;;;2.20;2.00;;;;;;;19.21;72.78;96612.03;6037224;23;20350;-93
2022/06/29 03:42:45;;;;;;;1.90;1.80;;;;;;;18.34;72.93;96490.19;6061947;23;20186;-95
2022/06/29 03:45:12;;;;;;;2.17;2.07;;;;;;;18.95;72.73;96552.00;6060481;23;20251;-93
2022/06/29 03:47:39;;;;;;;1.90;1.80;;;;;;;19.17;72.64;96552.53;6061739;23;20687;-92
2022/06/29 03:50:07;;;;;;;2.40;2.20;;;;;;;23.29;73.03;97300.06;6061042;23;20202;-92
2022/06/29 03:52:34;;;;;;;2.10;1.90;;;;;;;19.63;72.78;96633.47;6059524;23;20180;-94
2022/06/29 03:55:01;;;;;;;2.43;2.23;;;;;;;16.88;72.34;96144.34;6058985;23;20232;-92
2022/06/29 03:57:28;;;;;;;2.50;2.30;;;;;;;16.06;72.24;96066.88;6059886;23;20183;-93
2022/06/29 03:59:55;;;;;;;2.13;1.93;;;;;;;22.95;72.95;97191.72;6036371;23;20175;-95
2022/06/29 04:02:23;;;;;;;2.20;2.00;;;;;;;18.13;72.72;96384.59;6061800;23;20182;-94
2022/06/29 04:04:50;;;;;;;2.47;2.23;;;;;;;16.30;72.54;96093.75;6062934;23;20241;-93
2022/06/29 04:07:17;;;;;;;2.77;2.00;;;;;;;18.52;72.87;96491.56;6060634;23;20179;-94
2022/06/29 04:09:44;;;;;;;2.30;2.10;;;;;;;19.14;72.79;96579.59;6060742;23;20180;-95
2022/06/29 04:12:11;;;;;;;2.77;2.10;;;;;;;23.18;73.20;97228.88;6063893;23;20199;-93
2022/06/29 04:14:38;;;;;;;2.47;2.20;;;;;;;17.40;72.73;96231.13;6060312;23;20266;-93
2022/06/29 04:17:05;;;;;;;3.53;2.20;;;;;;;19.50;73.08;96617.03;6086948;23;20176;-93
2022/06/29 04:19:32;;;;;;;2.50;2.30;;;;;;;18.64;72.73;96452.81;6056890;23;20723;-95
2022/06/29 04:21:59;;;;;;;3.13;2.50;;;;;;;17.09;72.38;96215.94;6056430;23;20528;-92
2022/06/29 04:24:26;;;;;;;2.60;2.40;;;;;;;19.93;73.09;96673.22;6026484;23;20675;-93
2022/06/29 04:26:53;;;;;;;3.00;2.20;;;;;;;17.99;73.01;96373.22;6052939;23;20180;-93
2022/06/29 04:29:19;;;;;;;3.47;2.50;;;;;;;17.55;72.82;96254.38;6061985;23;20179;-92
2022/06/29 04:31:46;;;;;;;5.90;2.60;;;;;;;18.56;72.20;96432.28;6055295;23;20201;-93
2022/06/29 04:34:13;;;;;;;4.23;2.50;;;;;;;19.33;72.86;96613.22;6052083;23;20204;-93
2022/06/29 04:36:40;;;;;;;4.23;2.77;;;;;;;19.80;73.20;96691.63;6071871;23;20271;-94
2022/06/29 04:39:06;;;;;;;4.00;2.20;;;;;;;23.00;73.28;97173.00;6028701;23;20180;-93
2022/06/29 04:41:33;;;;;;;3.90;2.40;;;;;;;20.08;74.02;96750.91;6054291;23;20510;-92
2022/06/29 04:44:00;;;;;;;4.80;2.47;;;;;;;17.02;72.86;96225.91;6041128;23;20199;-94
2022/06/29 04:46:26;;;;;;;4.63;2.30;;;;;;;19.32;72.65;96605.53;6101919;23;20250;-94
2022/06/29 04:48:56;;;;;;;4.07;2.50;;;;;;;17.98;72.65;96366.44;6101409;23;20183;-93
2022/06/29 04:51:23;;;;;;;3.27;2.40;;;;;;;19.24;73.35;96604.44;6101626;23;20191;-94
2022/06/29 04:53:54;;;;;;;4.80;2.30;;;;;;;19.20;72.44;96583.16;6078911;23;20222;-93
2022/06/29 04:56:22;;;;;;;2.43;2.23;;;;;;;16.19;72.44;96031.78;6086445;23;20164;-94
2022/06/29 04:58:51;;;;;;;2.90;2.37;;;;;;;19.09;73.12;96560.81;6094917;23;20176;-92
2022/06/29 05:01:18;;;;;;;3.33;2.43;;;;;;;21.09;73.45;96866.38;6097713;23;20178;-96
2022/06/29 05:03:45;;;;;;;10.07;2.67;;;;;;;19.36;73.36;96594.63;6120013;23;20219;-95
2022/06/29 05:06:12;;;;;;;4.90;2.77;;;;;;;19.03;73.35;96502.09;6118495;23;20171;-96
2022/06/29 05:08:39;;;;;;;15.17;2.97;;;;;;;21.65;73.65;96932.28;6098517;23;20210;-95
2022/06/29 05:11:06;;;;;;;3.83;2.60;;;;;;;22.11;73.60;97056.88;6092490;23;20245;-94
2022/06/29 05:13:33;;;;;;;6.73;2.90;;;;;;;19.20;73.40;96511.84;6145673;23;20195;-94
2022/06/29 05:16:00;;;;;;;10.93;3.30;;;;;;;18.56;73.28;96408.53;6116624;23;20178;-93
2022/06/29 05:18:28;;;;;;;5.93;3.10;;;;;;;15.91;73.32;95952.47;6112218;23;20628;-91
2022/06/29 05:20:55;;;;;;;7.47;3.13;;;;;;;23.32;73.66;97242.84;6130551;23;20207;-91
2022/06/29 05:23:22;;;;;;;7.90;3.63;;;;;;;22.62;73.71;97122.75;6116612;23;20200;-92
2022/06/29 05:25:48;;;;;;;5.33;2.80;;;;;;;19.68;73.55;96640.38;6090476;23;20168;-92
2022/06/29 05:28:15;;;;;;;6.53;3.13;;;;;;;22.69;73.59;97186.09;6119429;23;20163;-92
2022/06/29 05:30:42;;;;;;;7.23;3.37;;;;;;;19.15;73.56;96515.09;6114810;23;20211;-92
2022/06/29 05:33:09;;;;;;;9.17;3.40;;;;;;;20.08;73.75;96718.63;6118094;23;20183;-93
2022/06/29 05:35:35;;;;;;;4.80;3.20;;;;;;;23.55;74.25;97274.00;6115181;23;20194;-91
2022/06/29 05:38:02;;;;;;;5.27;2.90;;;;;;;22.84;74.45;97154.75;6089224;23;20192;-93
2022/06/29 05:40:30;;;;;;;8.13;3.30;;;;;;;23.11;74.21;97209.97;6085810;23;20191;-92
2022/06/29 05:42:59;;;;;;;3.93;3.20;;;;;;;23.41;74.12;97290.88;6104219;23;20203;-94
2022/06/29 05:45:26;;;;;;;5.77;2.90;;;;;;;23.20;74.00;97216.94;6081652;23;20184;-91
2022/06/29 05:47:53;;;;;;;5.03;3.20;;;;;;;19.94;74.03;96707.25;6111436;23;20451;-92
2022/06/29 05:50:23;;;;;;;5.93;3.07;;;;;;;20.57;73.91;96772.47;6080006;23;20243;-91
2022/06/29 05:52:50;;;;;;;4.67;3.37;;;;;;;22.46;74.07;97076.31;6108793;23;20195;-92
2022/06/29 05:55:17;;;;;;;6.47;3.27;;;;;;;22.44;73.95;97067.75;6084370;23;20206;-90
2022/06/29 05:57:43;;;;;;;5.20;3.20;;;;;;;22.57;74.08;97093.66;6072354;23;20695;-92
2022/06/29 06:00:10;;;;;;;5.53;3.20;;;;;;;22.46;74.16;97063.50;6097288;23;20237;-91
2022/06/29 06:02:37;;;;;;;3.53;3.17;;;;;;;20.50;73.81;96723.81;6082294;23;20179;-92
2022/06/29 06:05:04;;;;;;;4.67;3.10;;;;;;;22.66;73.86;97093.81;6078537;23;20180;-91
2022/06/29 06:07:31;;;;;;;3.90;2.80;;;;;;;23.57;74.14;97246.69;6098252;23;20180;-91
2022/06/29 06:09:58;;;;;;;4.40;3.10;;;;;;;23.57;74.12;97245.00;6082079;23;20482;-91
2022/06/29 06:12:24;;;;;;;4.60;2.77;;;;;;;23.31;74.48;97206.09;6106751;23;20200;-90
2022/06/29 06:49:50;;;;;;;3.30;2.97;;;;;;;20.02;73.69;96686.19;6104873;23;20191;-93
2022/06/29 06:58:05;;;;;;;3.70;2.80;;;;;;;20.55;73.87;96778.38;6119214;23;20183;-94
2022/06/29 07:00:31;;;;;;;4.70;3.37;;;;;;;18.07;73.84;96331.06;6042945;23;20192;-92
2022/06/29 07:02:58;;;;;;;4.20;3.27;;;;;;;23.41;74.44;97306.28;6047948;23;20161;-91
2022/06/29 07:08:09;;;;;;;4.53;3.03;;;;;;;18.50;73.70;96419.41;6154177;23;20186;-92
2022/06/29 07:10:35;;;;;;;5.93;2.87;;;;;;;19.68;74.18;96654.78;6106052;23;20171;-94
2022/06/29 07:15:44;;;;;;;5.10;3.13;;;;;;;19.73;74.01;96622.63;6153954;23;20167;-91
2022/06/29 07:21:06;;;;;;;3.50;2.93;;;;;;;22.25;74.15;97115.19;6124023;23;20187;-92
2022/06/29 07:24:03;;;;;;;3.57;2.50;;;;;;;20.39;73.95;96738.91;6080664;23;20270;-93
2022/06/29 07:26:29;;;;;;;7.20;3.07;;;;;;;22.94;74.06;97211.34;6074495;23;20140;-89
2022/06/29 07:28:56;;;;;;;3.90;3.07;;;;;;;21.10;73.84;96885.97;6072727;23;20208;-90
2022/06/29 07:31:22;;;;;;;3.97;2.87;;;;;;;19.92;73.86;96666.41;6074159;23;20191;-92
2022/06/29 07:33:57;;;;;;;3.87;3.20;;;;;;;17.96;73.53;96308.75;6053037;23;20179;-92
2022/06/29 07:44:29;;;;;;;3.73;2.97;;;;;;;20.51;73.76;96812.28;6166960;23;20175;-90
2022/06/29 07:47:11;;;;;;;5.60;2.73;;;;;;;18.62;73.91;96451.94;6105708;23;20161;-93
2022/06/29 07:49:38;;;;;;;5.47;2.70;;;;;;;20.31;73.94;96793.16;6128945;23;20140;-92
2022/06/29 07:52:05;;;;;;;8.33;2.90;;;;;;;22.40;74.45;97148.78;6104968;23;20183;-93
2022/06/29 07:54:31;;;;;;;3.17;2.50;;;;;;;20.32;73.78;96798.28;6080618;23;20202;-91
2022/06/29 07:57:07;;;;;;;3.80;2.87;;;;;;;21.80;73.13;97070.75;6129043;23;20478;-93
2022/06/29 07:59:43;;;;;;;4.67;2.80;;;;;;;19.37;73.87;96655.78;6108594;23;20144;-91
2022/06/29 08:02:10;;;;;;;4.27;2.93;;;;;;;22.27;73.72;97130.56;6081307;23;20206;-93
2022/06/29 08:04:37;;;;;;;3.37;2.77;;;;;;;20.43;73.97;96830.00;6104670;23;20175;-92
2022/06/29 08:10:08;;;;;;;3.13;2.80;;;;;;;20.57;74.23;96808.19;6124051;23;20175;-93
2022/06/29 08:12:53;;;;;;;3.67;2.77;;;;;;;20.42;73.94;96817.19;6084153;23;20202;-94
2022/06/29 08:15:20;;;;;;;3.53;2.80;;;;;;;20.32;74.09;96782.09;6070566;23;20180;-93
2022/06/29 08:17:48;;;;;;;3.20;2.60;;;;;;;18.62;73.60;96539.28;6071344;23;20172;-94
2022/06/29 08:20:15;;;;;;;3.43;2.93;;;;;;;19.81;75.08;96698.44;6024083;23;20197;-92
2022/06/29 08:22:42;;;;;;;4.30;2.67;;;;;;;19.41;73.82;96604.06;6024289;23;20160;-93
2022/06/29 08:25:09;;;;;;;3.00;2.47;;;;;;;19.86;73.70;96673.06;6046887;23;20180;-91
2022/06/29 08:27:35;;;;;;;2.50;2.30;;;;;;;18.96;73.67;96553.72;6023981;23;20180;-91
2022/06/29 08:30:18;;;;;;;4.73;2.80;;;;;;;19.22;73.90;96608.69;6033109;23;20167;-92
2022/06/29 08:32:45;;;;;;;2.77;2.30;;;;;;;19.41;73.85;96629.56;6070543;23;20188;-91
2022/06/29 08:35:12;;;;;;;2.93;2.33;;;;;;;23.51;74.02;97282.50;6047244;23;20234;-90
2022/06/29 08:37:39;;;;;;;5.17;2.70;;;;;;;20.49;73.58;96804.59;6071193;23;20180;-92
2022/06/29 08:40:17;;;;;;;2.90;2.70;;;;;;;22.13;74.02;97112.38;6047863;23;20156;-92
2022/06/29 08:42:45;;;;;;;3.10;2.80;;;;;;;19.24;73.59;96541.66;6049904;23;20189;-93
2022/06/29 08:45:12;;;;;;;2.83;2.50;;;;;;;20.51;73.68;96786.78;6094306;23;20180;-91
2022/06/29 08:47:41;;;;;;;3.23;2.70;;;;;;;22.80;74.26;97141.03;6023328;23;20184;-90
2022/06/29 08:51:03;;;;;;;2.97;2.67;;;;;;;20.02;73.62;96659.84;6062230;23;20176;-94
2022/06/29 08:53:44;;;;;;;2.80;2.47;;;;;;;21.82;73.97;97006.81;6051815;23;20197;-92
2022/06/29 08:56:12;;;;;;;2.70;2.50;;;;;;;21.48;74.71;96959.22;6047982;23;20217;-91
2022/06/29 08:58:41;;;;;;;2.63;2.43;;;;;;;23.53;73.81;97270.59;6047105;23;20183;-92
2022/06/29 09:01:21;;;;;;;2.80;2.50;;;;;;;19.13;73.00;96525.25;6073570;23;20177;-92
2022/06/29 09:03:48;;;;;;;3.70;2.70;;;;;;;20.60;73.75;96779.34;6039934;23;20207;-92
2022/06/29 09:06:14;;;;;;;3.10;2.73;;;;;;;20.54;73.83;96749.44;6123102;23;20175;-92
2022/06/29 09:08:41;;;;;;;3.77;2.43;;;;;;;20.23;73.82;96696.03;6123128;23;20172;-93
2022/06/29 09:11:37;;;;;;;2.90;2.60;;;;;;;23.53;74.01;97261.16;6099056;23;20156;-90
2022/06/29 09:14:15;;;;;;;2.50;2.30;;;;;;;23.53;73.71;97263.72;6123027;23;20207;-91
2022/06/29 09:17:17;;;;;;;3.07;2.67;;;;;;;18.81;73.52;96494.78;6099219;23;20163;-89
2022/06/29 09:19:46;;;;;;;3.00;2.60;;;;;;;21.04;73.76;96883.31;6122924;23;20186;-92
2022/06/29 09:22:25;;;;;;;2.40;2.20;;;;;;;19.78;73.55;96632.09;6101837;23;20144;-94
2022/06/29 09:24:51;;;;;;;2.70;2.50;;;;;;;19.96;73.43;96672.44;6122909;23;20184;-94
2022/06/29 09:27:38;;;;;;;2.90;2.43;;;;;;;19.43;73.33;96622.81;6123415;23;20159;-92
2022/06/29 09:30:05;;;;;;;2.37;2.17;;;;;;;21.66;73.65;96986.03;6121004;23;20204;-93
2022/06/29 09:32:32;;;;;;;2.10;2.00;;;;;;;19.34;73.05;96565.69;6120731;23;20172;-93
2022/06/29 09:34:59;;;;;;;3.40;2.50;;;;;;;20.42;73.41;96796.78;6096702;23;20203;-93
2022/06/29 09:40:00;;;;;;;3.83;2.60;;;;;;;20.53;73.04;96811.53;6116745;23;20179;-92
2022/06/29 09:42:27;;;;;;;19.43;3.53;;;;;;;21.26;73.31;96916.16;6047915;23;20148;-93
2022/06/29 09:44:54;;;;;;;6.20;3.27;;;;;;;19.61;73.79;96604.53;6065541;23;20187;-92
2022/06/29 09:47:21;;;;;;;8.67;3.00;;;;;;;19.34;73.41;96536.00;6043572;23;20176;-92
2022/06/29 09:50:00;;;;;;;9.00;2.87;;;;;;;19.11;73.32;96534.56;6068126;23;20176;-93
2022/06/29 09:52:45;;;;;;;9.80;3.20;;;;;;;21.42;73.57;96911.38;6072704;23;20222;-93
2022/06/29 09:55:12;;;;;;;7.03;3.13;;;;;;;18.82;73.52;96458.31;6067372;23;20188;-89
2022/06/29 09:57:39;;;;;;;6.47;2.83;;;;;;;20.56;74.10;96752.88;6044202;23;20176;-91
2022/06/29 10:02:54;;;;;;;7.50;2.90;;;;;;;21.29;73.49;96896.63;6075706;23;20212;-93
2022/06/29 10:05:22;;;;;;;6.10;2.77;;;;;;;23.05;73.63;97186.78;6048459;23;20196;-92
2022/06/29 10:10:25;;;;;;;7.23;2.63;;;;;;;20.63;73.28;96817.69;6124881;23;20251;-94
2022/06/29 10:16:22;;;;;;;4.43;2.97;;;;;;;18.65;72.83;96487.63;6095641;23;20172;-95
2022/06/29 10:19:20;;;;;;;4.10;2.73;;;;;;;19.39;73.33;96574.31;6072280;23;20200;-92
2022/06/29 10:21:46;;;;;;;5.50;2.83;;;;;;;17.98;73.28;96299.47;6094997;23;20177;-91
2022/06/29 10:24:15;;;;;;;5.70;3.23;;;;;;;20.26;73.59;96725.84;6093101;23;20216;-92
2022/06/29 10:26:43;;;;;;;4.40;2.93;;;;;;;22.45;73.60;97105.31;6095108;23;20229;-92
2022/06/29 10:29:09;;;;;;;4.83;3.20;;;;;;;23.52;73.82;97243.19;6095660;23;20162;-92
2022/06/29 10:34:31;;;;;;;11.43;3.40;;;;;;;23.51;73.58;97239.78;6095024;23;20180;-95
2022/06/29 10:45:19;;;;;;;4.87;3.03;;;;;;;19.25;73.67;96519.59;6114934;23;20222;-94
2022/06/29 11:03:53;;;;;;;8.07;4.10;;;;;;;20.57;73.50;96744.38;6131461;23;20196;-94
2022/06/29 11:12:07;;;;;;;11.27;4.63;;;;;;;20.53;73.09;96737.50;6111940;23;20271;-92
2022/06/29 11:17:58;;;;;;;14.37;4.57;;;;;;;20.51;73.38;96728.06;6076895;23;20235;-92
2022/06/29 11:21:03;;;;;;;;;;;;;;;;;;;;;
2022/06/29 11:24:22;;;;;;;10.47;4.90;;;;;;;20.72;73.39;96754.06;6099579;23;20180;-93
2022/06/29 11:27:06;;;;;;;9.23;4.80;;;;;;;20.68;73.43;96753.13;6060619;23;20188;-92
2022/06/29 11:29:34;;;;;;;10.17;5.17;;;;;;;20.59;73.31;96752.06;6067150;23;20182;-90
2022/06/29 11:32:17;;;;;;;12.47;4.73;;;;;;;20.20;73.67;96688.31;6044561;23;20210;-93
2022/06/29 11:35:21;;;;;;;11.63;5.13;;;;;;;23.49;73.81;97220.91;6074203;23;20199;-92
2022/06/29 11:37:50;;;;;;;11.80;5.07;;;;;;;21.22;73.58;96832.56;6098395;23;20180;-90
2022/06/29 11:40:29;;;;;;;8.60;5.00;;;;;;;20.27;73.41;96697.81;6070140;23;20192;-95
2022/06/29 11:43:06;;;;;;;10.73;5.20;;;;;;;20.20;74.39;96682.34;6077850;23;20148;-94
2022/06/29 11:45:35;;;;;;;9.50;4.73;;;;;;;23.50;73.88;97211.53;6076440;23;20191;-90
2022/06/29 11:48:10;;;;;;;15.33;5.30;;;;;;;19.80;73.35;96624.47;6122570;23;20220;-92
2022/06/29 11:55:54;;;;;;;8.57;5.07;;;;;;;21.06;73.26;96792.25;6121363;23;20176;-94
2022/06/29 11:58:21;;;;;;;12.93;5.23;;;;;;;22.64;73.32;97061.31;6074273;23;20179;-94
2022/06/29 12:00:48;;;;;;;12.97;5.57;;;;;;;20.67;73.19;96725.91;6050071;23;20159;-94
2022/06/29 12:03:15;;;;;;;12.80;5.43;;;;;;;22.76;73.34;97088.00;6097695;23;20160;-90
2022/06/29 12:06:05;;;;;;;13.57;5.70;;;;;;;20.51;72.62;96757.03;6044904;23;20180;-93
2022/06/29 12:08:37;;;;;;;12.87;5.47;;;;;;;22.44;73.48;97070.31;6046861;23;20153;-95
2022/06/29 12:11:10;;;;;;;11.47;5.53;;;;;;;20.55;73.38;96725.66;6047162;23;20192;-95
2022/06/29 12:13:40;;;;;;;10.83;5.97;;;;;;;19.38;73.13;96542.00;6044869;23;20188;-91
2022/06/29 12:16:07;;;;;;;14.07;6.10;;;;;;;18.14;73.19;96288.84;6023457;23;20157;-92
2022/06/29 12:21:18;;;;;;;13.70;6.00;;;;;;;21.16;72.93;96828.22;6123191;23;20195;-89
2022/06/29 12:23:45;;;;;;;14.53;5.80;;;;;;;21.70;74.01;96980.13;6067803;23;20208;-91
2022/06/29 12:26:12;;;;;;;13.20;5.60;;;;;;;20.41;73.37;96728.72;6043851;23;20160;-93
2022/06/29 12:28:39;;;;;;;10.50;5.33;;;;;;;20.57;73.36;96762.25;6044113;23;20184;-92
2022/06/29 12:31:06;;;;;;;12.53;5.17;;;;;;;20.48;73.44;96738.22;6045439;23;20156;-92
2022/06/29 12:33:36;;;;;;;14.03;6.07;;;;;;;18.48;73.09;96356.63;6047235;23;20175;-91
2022/06/29 12:36:04;;;;;;;11.83;6.27;;;;;;;18.52;73.23;96368.56;6066624;23;20160;-93
2022/06/29 12:38:30;;;;;;;11.67;5.37;;;;;;;17.72;72.87;96240.41;6045984;23;20191;-92
2022/06/29 12:40:57;;;;;;;15.20;6.43;;;;;;;19.00;73.04;96443.47;6047160;23;20141;-91
2022/06/29 12:43:24;;;;;;;11.60;6.17;;;;;;;19.39;72.93;96525.91;6045610;23;20164;-93
2022/06/29 12:45:51;;;;;;;14.83;6.30;;;;;;;22.50;73.54;97044.84;6045195;23;20216;-91
2022/06/29 12:48:19;;;;;;;12.67;5.90;;;;;;;17.94;72.92;96306.16;6045354;23;20144;-94
2022/06/29 12:50:52;;;;;;;12.43;6.27;;;;;;;18.50;72.80;96368.53;6093798;23;20221;-93
2022/06/29 12:53:18;;;;;;;14.23;6.60;;;;;;;20.32;73.01;96680.91;6043905;23;20203;-93
2022/06/29 12:55:45;;;;;;;11.23;5.90;;;;;;;18.53;nan;96400.84;6068484;23;20192;-92
2022/06/29 12:58:12;;;;;;;11.47;5.87;;;;;;;20.61;73.29;96741.09;6044529;23;20179;-93
2022/06/29 13:00:38;;;;;;;10.10;5.80;;;;;;;19.86;73.18;96599.13;6070636;23;20189;-92
2022/06/29 13:03:16;;;;;;;10.60;5.80;;;;;;;18.41;71.69;96355.59;6050991;23;20667;-90
2022/06/29 13:05:42;;;;;;;10.10;5.70;;;;;;;20.33;73.56;96725.13;6046783;23;20239;-92
2022/06/29 13:08:10;;;;;;;11.93;5.77;;;;;;;21.12;73.13;96843.44;6046713;23;20161;-93
2022/06/29 13:10:37;;;;;;;14.37;5.87;;;;;;;18.66;73.06;96429.16;6070804;23;20163;-92
2022/06/29 13:13:04;;;;;;;10.23;6.07;;;;;;;20.86;73.51;96817.34;6046814;23;20188;-92
2022/06/29 13:15:31;;;;;;;9.40;5.33;;;;;;;20.66;73.01;96784.59;6045846;23;20209;-89
2022/06/29 13:18:04;;;;;;;10.73;5.80;;;;;;;21.53;72.78;96880.91;6052924;23;20220;-94
2022/06/29 13:20:31;;;;;;;11.50;5.40;;;;;;;20.48;73.98;96731.44;6047099;23;20156;-91
2022/06/29 13:22:58;;;;;;;12.43;6.30;;;;;;;20.47;73.12;96742.47;6045969;23;20157;-91
2022/06/29 13:25:26;;;;;;;8.93;4.97;;;;;;;18.88;72.75;96426.25;6022616;23;20192;-90
2022/06/29 13:27:53;;;;;;;13.53;6.00;;;;;;;21.25;73.13;96870.97;6068310;23;20185;-93
2022/06/29 13:33:01;;;;;;;11.60;5.67;;;;;;;20.30;73.14;96717.41;6120576;23;20222;-92
2022/06/29 13:35:28;;;;;;;10.57;5.87;;;;;;;18.42;72.91;96346.31;6072162;23;20196;-90
2022/06/29 13:37:58;;;;;;;8.40;5.70;;;;;;;19.52;73.77;96569.50;6049379;23;20196;-91
2022/06/29 13:41:05;;;;;;;9.70;5.60;;;;;;;19.18;72.91;96508.41;6081701;23;20171;-92
2022/06/29 13:43:32;;;;;;;11.63;5.67;;;;;;;19.43;73.22;96553.16;6072136;23;20172;-88
2022/06/29 13:48:58;;;;;;;10.77;5.53;;;;;;;18.60;72.75;96378.13;6116327;23;20195;-90
2022/06/29 13:51:25;;;;;;;11.90;5.90;;;;;;;21.03;73.04;96840.72;6099228;23;20148;-91